createdAt,value
2018-07-21T00:00:20.220Z,19.52
2018-07-21T00:01:27.048Z,19.45
2018-07-21T00:02:32.844Z,19.39
2018-07-21T00:03:38.845Z,19.37
2018-07-21T00:04:44.988Z,19.40
2018-07-21T00:05:52.351Z,19.35
2018-07-21T00:06:58.097Z,19.34
2018-07-21T00:08:04.112Z,19.30
2018-07-21T00:09:09.504Z,19.21
2018-07-21T00:10:16.829Z,19.11
2018-07-21T00:11:23.956Z,19.08
2018-07-21T00:12:30.955Z,19.01
2018-07-21T00:13:37.122Z,18.97
2018-07-21T00:14:43.425Z,19.00
2018-07-21T00:15:49.075Z,18.95
2018-07-21T00:16:55.137Z,19.00
2018-07-21T00:18:01.560Z,19.01
2018-07-21T00:19:07.544Z,18.90
2018-07-21T00:20:13.749Z,18.93
2018-07-21T00:21:19.859Z,19.01
2018-07-21T00:22:26.003Z,19.08
2018-07-21T00:23:32.155Z,19.08
2018-07-21T00:24:38.562Z,19.12
2018-07-21T00:25:44.657Z,18.95
2018-07-21T00:26:50.820Z,18.85
2018-07-21T00:27:56.895Z,18.79
2018-07-21T00:29:02.932Z,18.76
2018-07-21T00:30:09.045Z,18.76
2018-07-21T00:31:15.004Z,18.81
2018-07-21T00:32:21.510Z,18.81
2018-07-21T00:33:27.505Z,18.74
2018-07-21T00:34:33.633Z,18.68
2018-07-21T00:35:39.408Z,18.59
2018-07-21T00:36:45.448Z,18.62
2018-07-21T00:37:51.166Z,18.66
2018-07-21T00:38:56.906Z,18.61
2018-07-21T00:40:03.313Z,18.66
2018-07-21T00:41:09.557Z,18.70
2018-07-21T00:42:16.065Z,18.82
2018-07-21T00:43:22.188Z,18.99
2018-07-21T00:44:28.304Z,18.83
2018-07-21T00:45:34.420Z,18.82
2018-07-21T00:46:40.531Z,18.86
2018-07-21T00:47:47.641Z,18.75
2018-07-21T00:48:54.783Z,18.72
2018-07-21T00:50:00.800Z,18.76
2018-07-21T00:51:06.288Z,18.78
2018-07-21T00:52:12.424Z,18.79
2018-07-21T00:53:18.531Z,18.81
2018-07-21T00:54:24.676Z,18.75
2018-07-21T00:55:30.820Z,18.66
2018-07-21T00:56:36.904Z,18.63
2018-07-21T00:57:43.262Z,18.60
2018-07-21T00:58:49.448Z,18.47
2018-07-21T00:59:55.520Z,18.52
2018-07-21T01:01:01.845Z,18.65
2018-07-21T01:02:07.649Z,18.63
2018-07-21T01:03:13.683Z,18.68
2018-07-21T01:04:19.761Z,18.66
2018-07-21T01:05:25.862Z,18.68
2018-07-21T01:06:31.658Z,18.60
2018-07-21T01:07:37.703Z,18.50
2018-07-21T01:08:43.836Z,18.46
2018-07-21T01:09:49.952Z,18.42
2018-07-21T01:10:56.094Z,18.39
2018-07-21T01:12:02.433Z,18.35
2018-07-21T01:13:08.496Z,18.28
2018-07-21T01:14:14.621Z,18.29
2018-07-21T01:15:20.380Z,18.26
2018-07-21T01:16:26.133Z,18.18
2018-07-21T01:17:32.175Z,18.12
2018-07-21T01:18:38.277Z,18.12
2018-07-21T01:19:44.445Z,18.13
2018-07-21T01:20:50.268Z,18.12
2018-07-21T01:21:56.276Z,18.11
2018-07-21T01:23:02.572Z,18.11
2018-07-21T01:24:08.508Z,18.11
2018-07-21T01:25:14.925Z,18.08
2018-07-21T01:26:21.089Z,18.10
2018-07-21T01:27:27.231Z,18.01
2018-07-21T01:28:32.998Z,17.99
2018-07-21T01:29:39.013Z,18.00
2018-07-21T01:30:45.338Z,17.98
2018-07-21T01:31:51.425Z,18.08
2018-07-21T01:32:57.761Z,18.17
2018-07-21T01:34:04.370Z,18.22
2018-07-21T01:35:10.666Z,18.23
2018-07-21T01:36:16.761Z,18.19
2018-07-21T01:37:22.553Z,18.23
2018-07-21T01:38:28.564Z,18.21
2018-07-21T01:39:34.671Z,18.12
2018-07-21T01:40:40.426Z,18.10
2018-07-21T01:41:47.026Z,17.98
2018-07-21T01:42:53.401Z,17.86
2018-07-21T01:43:59.418Z,17.84
2018-07-21T01:45:05.169Z,17.86
2018-07-21T01:46:11.367Z,17.86
2018-07-21T01:47:17.467Z,17.85
2018-07-21T01:48:23.594Z,17.84
2018-07-21T01:49:29.753Z,17.90
2018-07-21T01:50:35.856Z,17.96
2018-07-21T01:51:42.096Z,18.03
2018-07-21T01:52:47.769Z,18.10
2018-07-21T01:53:53.765Z,18.06
2018-07-21T01:54:59.971Z,18.12
2018-07-21T01:56:05.726Z,18.09
2018-07-21T01:57:11.816Z,18.05
2018-07-21T01:58:17.933Z,18.13
2018-07-21T01:59:24.070Z,18.17
2018-07-21T02:00:30.941Z,18.25
2018-07-21T02:01:37.143Z,18.17
2018-07-21T02:02:43.401Z,17.93
2018-07-21T02:03:49.920Z,17.94
2018-07-21T02:04:56.125Z,17.92
2018-07-21T02:06:02.465Z,17.92
2018-07-21T02:07:08.210Z,17.95
2018-07-21T02:08:14.221Z,17.92
2018-07-21T02:09:20.317Z,17.88
2018-07-21T02:10:26.407Z,17.89
2018-07-21T02:11:32.507Z,17.85
2018-07-21T02:12:38.692Z,17.72
2018-07-21T02:13:44.942Z,17.59
2018-07-21T02:14:51.355Z,17.48
2018-07-21T02:15:57.660Z,17.52
2018-07-21T02:17:04.108Z,17.55
2018-07-21T02:18:10.523Z,17.66
2018-07-21T02:19:16.621Z,17.77
2018-07-21T02:20:22.884Z,17.77
2018-07-21T02:21:29.039Z,17.68
2018-07-21T02:22:35.134Z,17.70
2018-07-21T02:23:41.547Z,17.66
2018-07-21T02:24:47.852Z,17.64
2018-07-21T02:25:53.956Z,17.69
2018-07-21T02:27:00.055Z,17.59
2018-07-21T02:28:06.212Z,17.57
2018-07-21T02:29:12.385Z,17.58
2018-07-21T02:30:18.157Z,17.48
2018-07-21T02:31:24.339Z,17.55
2018-07-21T02:32:30.420Z,17.58
2018-07-21T02:33:37.239Z,17.50
2018-07-21T02:34:43.394Z,17.49
2018-07-21T02:35:49.536Z,17.51
2018-07-21T02:36:56.372Z,17.42
2018-07-21T02:38:02.571Z,17.52
2018-07-21T02:39:08.217Z,17.52
2018-07-21T02:40:14.299Z,17.50
2018-07-21T02:41:20.385Z,17.51
2018-07-21T02:42:26.436Z,17.45
2018-07-21T02:43:33.338Z,17.38
2018-07-21T02:44:39.425Z,17.32
2018-07-21T02:45:45.761Z,17.32
2018-07-21T02:46:52.033Z,17.23
2018-07-21T02:47:58.385Z,17.25
2018-07-21T02:49:04.492Z,17.17
2018-07-21T02:50:10.263Z,17.14
2018-07-21T02:51:16.285Z,17.10
2018-07-21T02:52:22.343Z,17.07
2018-07-21T02:53:28.717Z,17.07
2018-07-21T02:54:34.797Z,17.04
2018-07-21T02:55:40.894Z,17.02
2018-07-21T02:56:46.978Z,17.01
2018-07-21T02:57:53.243Z,17.06
2018-07-21T02:58:59.257Z,17.04
2018-07-21T03:00:04.749Z,17.06
2018-07-21T03:01:10.420Z,17.03
2018-07-21T03:02:16.082Z,17.01
2018-07-21T03:03:22.157Z,16.98
2018-07-21T03:04:28.217Z,16.95
2018-07-21T03:05:34.265Z,16.94
2018-07-21T03:06:40.343Z,16.91
2018-07-21T03:07:46.477Z,16.95
2018-07-21T03:08:52.578Z,16.98
2018-07-21T03:09:59.160Z,16.99
2018-07-21T03:11:05.411Z,16.98
2018-07-21T03:12:11.172Z,17.05
2018-07-21T03:13:17.912Z,17.05
2018-07-21T03:14:24.200Z,16.94
2018-07-21T03:15:30.522Z,16.85
2018-07-21T03:16:37.174Z,16.80
2018-07-21T03:17:43.253Z,16.80
2018-07-21T03:18:49.594Z,16.75
2018-07-21T03:19:55.704Z,16.75
2018-07-21T03:21:01.989Z,16.71
2018-07-21T03:22:07.976Z,16.82
2018-07-21T03:23:14.007Z,16.86
2018-07-21T03:24:20.346Z,16.87
2018-07-21T03:25:26.416Z,16.84
2018-07-21T03:26:32.549Z,16.75
2018-07-21T03:27:38.276Z,16.76
2018-07-21T03:28:44.357Z,16.84
2018-07-21T03:29:51.529Z,16.81
2018-07-21T03:30:57.948Z,16.85
2018-07-21T03:32:04.241Z,16.87
2018-07-21T03:33:10.089Z,16.91
2018-07-21T03:34:16.242Z,16.91
2018-07-21T03:35:22.330Z,16.88
2018-07-21T03:36:28.400Z,16.79
2018-07-21T03:37:34.423Z,16.80
2018-07-21T03:38:40.708Z,16.86
2018-07-21T03:39:46.848Z,16.95
2018-07-21T03:40:52.954Z,17.02
2018-07-21T03:41:59.058Z,16.97
2018-07-21T03:43:05.083Z,17.01
2018-07-21T03:44:11.620Z,16.98
2018-07-21T03:45:17.985Z,16.82
2018-07-21T03:46:24.122Z,16.80
2018-07-21T03:47:30.304Z,16.73
2018-07-21T03:48:36.418Z,16.69
2018-07-21T03:49:43.184Z,16.69
2018-07-21T03:50:49.436Z,16.73
2018-07-21T03:51:55.554Z,16.71
2018-07-21T03:53:01.648Z,16.76
2018-07-21T03:54:07.494Z,16.76
2018-07-21T03:55:14.332Z,16.77
2018-07-21T03:56:20.952Z,16.77
2018-07-21T03:57:27.256Z,16.77
2018-07-21T03:58:33.460Z,16.78
2018-07-21T03:59:39.565Z,16.76
2018-07-21T04:00:45.701Z,16.83
2018-07-21T04:01:51.885Z,16.81
2018-07-21T04:02:57.984Z,16.84
2018-07-21T04:04:03.736Z,16.84
2018-07-21T04:05:09.777Z,16.78
2018-07-21T04:06:16.024Z,16.81
2018-07-21T04:07:22.180Z,16.85
2018-07-21T04:08:28.313Z,16.90
2018-07-21T04:09:34.426Z,16.90
2018-07-21T04:10:40.862Z,16.93
2018-07-21T04:11:48.677Z,16.94
2018-07-21T04:12:55.816Z,17.02
2018-07-21T04:14:03.062Z,17.00
2018-07-21T04:15:09.904Z,17.01
2018-07-21T04:16:16.695Z,17.01
2018-07-21T04:17:24.158Z,17.02
2018-07-21T04:18:32.106Z,17.05
2018-07-21T04:19:38.753Z,17.05
2018-07-21T04:20:46.021Z,17.06
2018-07-21T04:21:52.373Z,17.10
2018-07-21T04:22:58.427Z,17.20
2018-07-21T04:24:04.302Z,17.26
2018-07-21T04:25:10.673Z,17.28
2018-07-21T04:26:16.417Z,17.28
2018-07-21T04:27:22.602Z,17.32
2018-07-21T04:28:28.709Z,17.37
2018-07-21T04:29:38.034Z,17.42
2018-07-21T04:30:44.160Z,17.43
2018-07-21T04:31:50.384Z,17.43
2018-07-21T04:32:57.637Z,17.48
2018-07-21T04:34:03.609Z,17.51
2018-07-21T04:35:09.732Z,17.56
2018-07-21T04:36:15.804Z,17.57
2018-07-21T04:37:22.055Z,17.58
2018-07-21T04:38:27.801Z,17.59
2018-07-21T04:39:33.870Z,17.68
2018-07-21T04:40:40.132Z,17.68
2018-07-21T04:41:46.254Z,17.60
2018-07-21T04:42:51.991Z,17.63
2018-07-21T04:43:58.064Z,17.60
2018-07-21T04:45:04.002Z,17.64
2018-07-21T04:46:10.256Z,17.66
2018-07-21T04:47:16.404Z,17.67
2018-07-21T04:48:22.476Z,17.73
2018-07-21T04:49:28.648Z,17.77
2018-07-21T04:50:34.716Z,17.79
2018-07-21T04:51:40.889Z,17.78
2018-07-21T04:53:51.583Z,17.84
2018-07-21T04:54:57.820Z,17.91
2018-07-21T04:56:03.544Z,17.92
2018-07-21T04:57:11.084Z,17.98
2018-07-21T04:58:17.359Z,18.03
2018-07-21T04:59:29.422Z,18.08
2018-07-21T05:00:39.106Z,18.09
2018-07-21T05:01:47.738Z,18.15
2018-07-21T05:02:55.455Z,18.18
2018-07-21T05:04:03.697Z,18.20
2018-07-21T05:05:11.008Z,18.21
2018-07-21T05:06:17.949Z,18.20
2018-07-21T05:07:27.143Z,18.20
2018-07-21T05:08:34.884Z,18.23
2018-07-21T05:09:42.512Z,18.29
2018-07-21T05:10:50.200Z,18.35
2018-07-21T05:11:57.667Z,18.39
2018-07-21T05:13:04.872Z,18.42
2018-07-21T05:14:12.052Z,18.48
2018-07-21T05:15:19.592Z,18.48
2018-07-21T05:16:27.608Z,18.51
2018-07-21T05:17:35.926Z,18.54
2018-07-21T05:18:43.328Z,18.61
2018-07-21T05:19:50.880Z,18.69
2018-07-21T05:20:59.064Z,18.74
2018-07-21T05:22:07.682Z,18.79
2018-07-21T05:23:16.436Z,18.91
2018-07-21T05:24:23.562Z,19.01
2018-07-21T05:25:30.856Z,18.98
2018-07-21T05:26:38.919Z,19.11
2018-07-21T05:27:46.344Z,19.16
2018-07-21T05:28:52.542Z,19.30
2018-07-21T05:29:59.472Z,19.36
2018-07-21T05:31:06.311Z,19.48
2018-07-21T05:32:13.016Z,19.52
2018-07-21T05:33:19.944Z,19.54
2018-07-21T05:34:27.712Z,19.63
2018-07-21T05:35:34.436Z,19.68
2018-07-21T05:36:40.564Z,19.74
2018-07-21T05:37:47.921Z,19.81
2018-07-21T05:38:56.411Z,19.84
2018-07-21T05:40:03.647Z,19.87
2018-07-21T05:41:10.058Z,19.96
2018-07-21T05:42:16.830Z,20.01
2018-07-21T05:43:23.764Z,20.15
2018-07-21T05:44:31.710Z,20.17
2018-07-21T05:45:38.409Z,20.22
2018-07-21T05:46:45.779Z,20.34
2018-07-21T05:47:52.641Z,20.40
2018-07-21T05:48:59.359Z,20.49
2018-07-21T05:50:05.711Z,20.52
2018-07-21T05:51:11.995Z,20.54
2018-07-21T05:52:19.401Z,20.55
2018-07-21T05:53:27.425Z,20.73
2018-07-21T05:54:33.791Z,20.75
2018-07-21T05:55:40.487Z,20.79
2018-07-21T05:56:48.072Z,20.75
2018-07-21T05:57:54.871Z,20.93
2018-07-21T05:59:01.040Z,21.06
2018-07-21T06:00:06.485Z,21.05
2018-07-21T06:01:18.104Z,21.02
2018-07-21T06:02:24.956Z,21.04
2018-07-21T06:03:31.028Z,21.16
2018-07-21T06:04:39.114Z,21.17
2018-07-21T06:05:46.829Z,21.21
2018-07-21T06:06:53.051Z,21.31
2018-07-21T06:08:00.301Z,21.43
2018-07-21T06:09:06.555Z,21.55
2018-07-21T06:10:13.129Z,21.62
2018-07-21T06:11:20.197Z,21.70
2018-07-21T06:12:26.629Z,21.67
2018-07-21T06:13:33.065Z,21.72
2018-07-21T06:14:39.788Z,21.65
2018-07-21T06:15:45.995Z,21.73
2018-07-21T06:16:53.070Z,21.94
2018-07-21T06:18:00.057Z,21.90
2018-07-21T06:19:07.084Z,21.84
2018-07-21T06:20:14.726Z,21.82
2018-07-21T06:21:21.930Z,21.96
2018-07-21T06:22:28.006Z,21.99
2018-07-21T06:23:34.918Z,22.14
2018-07-21T06:24:41.353Z,22.12
2018-07-21T06:25:47.725Z,22.23
2018-07-21T06:26:54.726Z,22.25
2018-07-21T06:28:00.976Z,22.28
2018-07-21T06:29:07.984Z,22.28
2018-07-21T06:30:13.965Z,22.20
2018-07-21T06:31:21.426Z,22.28
2018-07-21T06:32:28.673Z,22.44
2018-07-21T06:33:35.688Z,22.63
2018-07-21T06:34:42.230Z,22.72
2018-07-21T06:35:49.912Z,22.78
2018-07-21T06:36:56.876Z,22.80
2018-07-21T06:38:03.159Z,22.77
2018-07-21T06:39:09.626Z,22.87
2018-07-21T06:40:16.682Z,23.01
2018-07-21T06:41:23.184Z,23.12
2018-07-21T06:42:30.178Z,23.22
2018-07-21T06:43:36.417Z,23.06
2018-07-21T06:44:43.028Z,23.13
2018-07-21T06:45:50.886Z,23.16
2018-07-21T06:46:57.582Z,23.39
2018-07-21T06:48:04.092Z,23.46
2018-07-21T06:49:12.685Z,23.31
2018-07-21T06:50:18.902Z,23.24
2018-07-21T06:51:26.128Z,23.38
2018-07-21T06:52:33.462Z,23.40
2018-07-21T06:53:40.610Z,23.34
2018-07-21T06:54:48.632Z,23.39
2018-07-21T06:55:55.163Z,23.38
2018-07-21T06:57:01.585Z,23.45
2018-07-21T06:58:08.396Z,23.52
2018-07-21T06:59:15.319Z,23.49
2018-07-21T07:00:22.623Z,23.56
2018-07-21T07:01:29.517Z,23.62
2018-07-21T07:02:37.378Z,23.54
2018-07-21T07:03:44.552Z,23.57
2018-07-21T07:04:50.687Z,23.48
2018-07-21T07:05:56.829Z,23.52
2018-07-21T07:07:03.684Z,23.59
2018-07-21T07:08:10.583Z,23.71
2018-07-21T07:09:18.795Z,23.89
2018-07-21T07:10:25.453Z,24.02
2018-07-21T07:11:31.789Z,24.00
2018-07-21T07:12:38.288Z,24.05
2018-07-21T07:13:45.244Z,23.93
2018-07-21T07:14:51.647Z,23.91
2018-07-21T07:15:58.164Z,24.01
2018-07-21T07:17:04.779Z,24.13
2018-07-21T07:18:11.429Z,24.10
2018-07-21T07:19:18.735Z,24.27
2018-07-21T07:20:25.226Z,24.43
2018-07-21T07:21:30.966Z,24.52
2018-07-21T07:22:37.632Z,24.65
2018-07-21T07:23:43.956Z,24.67
2018-07-21T07:24:51.121Z,24.50
2018-07-21T07:25:57.781Z,24.54
2018-07-21T07:27:05.398Z,24.62
2018-07-21T07:28:13.176Z,24.65
2018-07-21T07:29:20.036Z,24.79
2018-07-21T07:30:26.914Z,24.76
2018-07-21T07:31:33.491Z,24.72
2018-07-21T07:32:39.848Z,24.73
2018-07-21T07:33:46.053Z,24.77
2018-07-21T07:34:52.196Z,24.90
2018-07-21T07:35:58.310Z,24.97
2018-07-21T07:37:03.784Z,25.05
2018-07-21T07:38:10.449Z,25.08
2018-07-21T07:39:16.799Z,24.87
2018-07-21T07:40:22.944Z,24.86
2018-07-21T07:41:29.221Z,24.91
2018-07-21T07:42:35.383Z,24.84
2018-07-21T07:43:41.432Z,24.96
2018-07-21T07:44:47.565Z,25.02
2018-07-21T07:45:53.880Z,25.05
2018-07-21T07:46:59.873Z,25.04
2018-07-21T07:48:05.663Z,25.11
2018-07-21T07:49:11.670Z,24.93
2018-07-21T07:50:17.931Z,25.20
2018-07-21T07:51:24.094Z,25.31
2018-07-21T07:52:29.872Z,25.13
2018-07-21T07:53:35.957Z,25.31
2018-07-21T07:54:41.840Z,25.56
2018-07-21T07:55:47.752Z,25.43
2018-07-21T07:56:53.515Z,25.48
2018-07-21T07:57:59.345Z,25.54
2018-07-21T07:59:05.222Z,25.50
2018-07-21T08:00:11.488Z,25.49
2018-07-21T08:01:17.354Z,25.59
2018-07-21T08:02:23.076Z,25.65
2018-07-21T08:03:28.928Z,25.82
2018-07-21T08:04:35.040Z,25.69
2018-07-21T08:05:40.877Z,25.63
2018-07-21T08:06:46.709Z,25.64
2018-07-21T08:07:52.867Z,25.73
2018-07-21T08:08:58.951Z,25.86
2018-07-21T08:10:04.060Z,25.97
2018-07-21T08:11:09.850Z,26.00
2018-07-21T08:12:15.695Z,26.06
2018-07-21T08:13:21.552Z,25.96
2018-07-21T08:14:27.053Z,26.05
2018-07-21T08:15:32.736Z,26.10
2018-07-21T08:16:38.211Z,26.10
2018-07-21T08:17:44.334Z,26.09
2018-07-21T08:18:50.556Z,26.15
2018-07-21T08:19:56.561Z,26.33
2018-07-21T08:21:02.694Z,26.17
2018-07-21T08:22:08.754Z,26.23
2018-07-21T08:23:14.606Z,26.37
2018-07-21T08:24:20.431Z,26.62
2018-07-21T08:25:26.268Z,26.47
2018-07-21T08:26:32.004Z,26.58
2018-07-21T08:27:37.815Z,26.57
2018-07-21T08:28:43.680Z,26.58
2018-07-21T08:29:49.578Z,26.52
2018-07-21T08:30:55.383Z,26.58
2018-07-21T08:32:01.176Z,26.59
2018-07-21T08:33:06.744Z,26.75
2018-07-21T08:34:12.480Z,26.84
2018-07-21T08:35:19.111Z,26.70
2018-07-21T08:36:25.124Z,26.75
2018-07-21T08:37:31.037Z,26.89
2018-07-21T08:38:36.935Z,27.10
2018-07-21T08:39:42.678Z,26.90
2018-07-21T08:40:48.535Z,26.95
2018-07-21T08:41:53.948Z,27.00
2018-07-21T08:42:59.716Z,26.94
2018-07-21T08:44:05.429Z,26.77
2018-07-21T08:45:11.194Z,26.96
2018-07-21T08:46:17.557Z,27.03
2018-07-21T08:47:23.384Z,26.87
2018-07-21T08:48:29.244Z,27.02
2018-07-21T08:49:35.108Z,27.04
2018-07-21T08:50:40.952Z,26.93
2018-07-21T08:51:46.821Z,27.09
2018-07-21T08:52:52.681Z,27.17
2018-07-21T08:53:58.558Z,27.13
2018-07-21T08:55:04.060Z,27.11
2018-07-21T08:56:10.969Z,27.13
2018-07-21T08:57:17.598Z,27.20
2018-07-21T08:58:23.434Z,27.22
2018-07-21T08:59:29.259Z,27.25
2018-07-21T09:00:35.055Z,27.15
2018-07-21T09:01:41.321Z,27.17
2018-07-21T09:02:47.173Z,27.25
2018-07-21T09:03:52.996Z,27.15
2018-07-21T09:04:58.771Z,27.02
2018-07-21T09:06:04.605Z,27.11
2018-07-21T09:07:10.412Z,27.16
2018-07-21T09:08:16.257Z,27.25
2018-07-21T09:09:22.078Z,27.23
2018-07-21T09:10:27.876Z,27.31
2018-07-21T09:11:33.723Z,27.33
2018-07-21T09:12:39.592Z,27.29
2018-07-21T09:13:45.310Z,27.30
2018-07-21T09:14:51.139Z,27.30
2018-07-21T09:15:57.186Z,27.31
2018-07-21T09:17:03.090Z,27.27
2018-07-21T09:18:08.918Z,27.31
2018-07-21T09:19:14.624Z,27.49
2018-07-21T09:20:20.352Z,27.68
2018-07-21T09:21:26.236Z,27.56
2018-07-21T09:22:32.188Z,27.43
2018-07-21T09:23:38.079Z,27.40
2018-07-21T09:24:43.893Z,27.53
2018-07-21T09:25:49.693Z,27.61
2018-07-21T09:26:55.544Z,27.65
2018-07-21T09:28:01.519Z,27.73
2018-07-21T09:29:06.992Z,27.71
2018-07-21T09:30:12.692Z,27.63
2018-07-21T09:31:19.119Z,27.41
2018-07-21T09:32:24.908Z,27.45
2018-07-21T09:33:31.867Z,27.59
2018-07-21T09:34:37.643Z,27.66
2018-07-21T09:35:43.477Z,27.79
2018-07-21T09:36:49.370Z,27.58
2018-07-21T09:37:55.236Z,27.58
2018-07-21T09:39:01.080Z,27.57
2018-07-21T09:40:06.729Z,27.67
2018-07-21T09:41:12.739Z,27.74
2018-07-21T09:42:18.547Z,27.72
2018-07-21T09:43:24.382Z,27.72
2018-07-21T09:44:30.148Z,27.75
2018-07-21T09:45:36.034Z,27.89
2018-07-21T09:46:41.761Z,28.04
2018-07-21T09:47:47.549Z,27.95
2018-07-21T09:48:53.382Z,28.01
2018-07-21T09:49:59.240Z,27.96
2018-07-21T09:51:05.048Z,28.04
2018-07-21T09:52:10.879Z,27.93
2018-07-21T09:53:18.120Z,27.95
2018-07-21T09:54:24.216Z,28.01
2018-07-21T09:55:30.024Z,28.06
2018-07-21T09:56:36.052Z,28.06
2018-07-21T09:57:42.013Z,28.10
2018-07-21T09:58:47.844Z,28.03
2018-07-21T09:59:53.672Z,28.04
2018-07-21T10:00:59.282Z,28.04
2018-07-21T10:02:05.123Z,28.11
2018-07-21T10:03:11.110Z,28.14
2018-07-21T10:04:16.939Z,28.24
2018-07-21T10:05:22.820Z,28.15
2018-07-21T10:06:28.639Z,28.15
2018-07-21T10:07:34.452Z,28.23
2018-07-21T10:08:40.815Z,28.29
2018-07-21T10:09:46.224Z,28.29
2018-07-21T10:10:52.718Z,28.31
2018-07-21T10:11:58.532Z,28.27
2018-07-21T10:13:04.608Z,28.38
2018-07-21T10:14:11.047Z,28.32
2018-07-21T10:15:16.854Z,28.40
2018-07-21T10:16:22.664Z,28.57
2018-07-21T10:17:28.473Z,28.35
2018-07-21T10:18:34.258Z,28.46
2018-07-21T10:19:40.096Z,28.56
2018-07-21T10:20:45.527Z,28.65
2018-07-21T10:21:50.958Z,28.82
2018-07-21T10:22:56.853Z,29.04
2018-07-21T10:24:02.440Z,28.84
2018-07-21T10:25:07.671Z,28.82
2018-07-21T10:27:47.304Z,29.19
2018-07-21T10:28:59.500Z,29.26
2018-07-21T10:30:05.383Z,28.99
2018-07-21T10:31:11.340Z,28.90
2018-07-21T10:32:17.123Z,28.99
2018-07-21T10:33:23.020Z,29.08
2018-07-21T10:34:28.954Z,28.96
2018-07-21T10:35:34.772Z,28.99
2018-07-21T10:36:40.592Z,29.28
2018-07-21T10:37:46.424Z,29.42
2018-07-21T10:38:52.228Z,29.52
2018-07-21T10:39:57.748Z,29.28
2018-07-21T10:41:03.541Z,29.35
2018-07-21T10:42:09.468Z,29.08
2018-07-21T10:43:15.124Z,29.21
2018-07-21T10:44:20.971Z,29.51
2018-07-21T10:45:27.003Z,29.52
2018-07-21T10:46:32.911Z,29.55
2018-07-21T10:47:38.731Z,29.18
2018-07-21T10:48:44.536Z,29.10
2018-07-21T10:49:50.457Z,29.14
2018-07-21T10:50:56.347Z,29.12
2018-07-21T10:52:02.164Z,29.26
2018-07-21T10:53:07.940Z,29.13
2018-07-21T10:54:13.772Z,29.06
2018-07-21T10:55:19.643Z,29.08
2018-07-21T10:56:25.474Z,29.09
2018-07-21T10:57:31.280Z,28.99
2018-07-21T10:58:37.036Z,28.92
2018-07-21T10:59:42.880Z,28.60
2018-07-21T11:00:49.712Z,28.62
2018-07-21T11:01:55.590Z,28.63
2018-07-21T11:03:01.371Z,28.64
2018-07-21T11:04:07.172Z,28.77
2018-07-21T11:05:12.966Z,28.82
2018-07-21T11:06:18.809Z,29.08
2018-07-21T11:07:24.725Z,29.36
2018-07-21T11:08:30.589Z,29.44
2018-07-21T11:09:36.404Z,29.06
2018-07-21T11:10:42.185Z,28.93
2018-07-21T11:11:48.029Z,29.11
2018-07-21T11:12:53.884Z,29.17
2018-07-21T11:13:59.728Z,29.20
2018-07-21T11:15:05.333Z,29.07
2018-07-21T11:16:11.377Z,29.20
2018-07-21T11:17:17.179Z,29.25
2018-07-21T11:18:22.982Z,29.21
2018-07-21T11:19:29.036Z,29.20
2018-07-21T11:20:34.927Z,29.49
2018-07-21T11:21:41.917Z,29.68
2018-07-21T11:22:47.605Z,29.52
2018-07-21T11:23:53.508Z,29.29
2018-07-21T11:24:59.360Z,29.47
2018-07-21T11:26:05.225Z,29.49
2018-07-21T11:27:11.041Z,29.59
2018-07-21T11:28:16.498Z,29.81
2018-07-21T11:29:21.905Z,29.72
2018-07-21T11:30:27.645Z,29.75
2018-07-21T11:31:33.547Z,29.85
2018-07-21T11:32:39.317Z,29.90
2018-07-21T11:33:45.153Z,29.55
2018-07-21T11:34:51.057Z,29.49
2018-07-21T11:35:57.017Z,29.35
2018-07-21T11:37:03.601Z,29.31
2018-07-21T11:38:09.476Z,29.25
2018-07-21T11:39:15.336Z,28.98
2018-07-21T11:40:21.172Z,28.89
2018-07-21T11:41:26.880Z,28.77
2018-07-21T11:42:33.107Z,28.75
2018-07-21T11:43:38.654Z,28.65
2018-07-21T11:44:44.367Z,28.66
2018-07-21T11:45:50.143Z,28.75
2018-07-21T11:46:55.974Z,28.75
2018-07-21T11:48:01.757Z,28.86
2018-07-21T11:49:07.552Z,28.93
2018-07-21T11:50:13.929Z,28.96
2018-07-21T11:51:19.748Z,29.09
2018-07-21T11:52:25.594Z,28.96
2018-07-21T11:53:31.360Z,29.00
2018-07-21T11:54:37.170Z,29.02
2018-07-21T11:55:43.189Z,29.11
2018-07-21T11:56:49.467Z,29.14
2018-07-21T11:57:56.033Z,29.33
2018-07-21T11:59:01.947Z,29.39
2018-07-21T12:00:08.256Z,29.22
2018-07-21T12:01:14.153Z,29.16
2018-07-21T12:02:19.916Z,29.25
2018-07-21T12:03:25.750Z,29.23
2018-07-21T12:04:31.287Z,29.23
2018-07-21T12:05:37.147Z,29.15
2018-07-21T12:06:43.062Z,29.24
2018-07-21T12:07:50.834Z,29.38
2018-07-21T12:08:57.490Z,29.18
2018-07-21T12:10:03.421Z,29.38
2018-07-21T12:11:08.760Z,29.42
2018-07-21T12:12:14.480Z,29.37
2018-07-21T12:13:20.359Z,29.34
2018-07-21T12:14:26.400Z,29.37
2018-07-21T12:15:32.324Z,29.43
2018-07-21T12:16:38.124Z,29.53
2018-07-21T12:17:44.097Z,29.39
2018-07-21T12:18:50.694Z,29.42
2018-07-21T12:19:56.727Z,29.59
2018-07-21T12:21:02.447Z,29.42
2018-07-21T12:22:08.369Z,29.45
2018-07-21T12:23:14.169Z,29.47
2018-07-21T12:24:20.061Z,29.40
2018-07-21T12:25:26.000Z,29.31
2018-07-21T12:26:31.879Z,29.48
2018-07-21T12:27:37.950Z,29.68
2018-07-21T12:28:43.940Z,29.76
2018-07-21T12:29:49.750Z,29.57
2018-07-21T12:30:55.570Z,29.59
2018-07-21T12:32:01.001Z,29.76
2018-07-21T12:33:06.780Z,29.98
2018-07-21T12:34:12.569Z,29.92
2018-07-21T12:35:18.571Z,29.96
2018-07-21T12:36:24.295Z,30.01
2018-07-21T12:37:30.118Z,29.96
2018-07-21T12:38:36.000Z,29.91
2018-07-21T12:39:41.844Z,30.13
2018-07-21T12:40:47.571Z,30.23
2018-07-21T12:41:53.344Z,30.00
2018-07-21T12:42:59.146Z,29.88
2018-07-21T12:44:04.640Z,29.52
2018-07-21T12:45:10.333Z,29.45
2018-07-21T12:46:16.150Z,29.47
2018-07-21T12:47:22.211Z,29.82
2018-07-21T12:48:28.089Z,30.07
2018-07-21T12:49:33.949Z,30.18
2018-07-21T12:50:39.775Z,30.02
2018-07-21T12:51:45.532Z,29.98
2018-07-21T12:52:51.428Z,29.93
2018-07-21T12:53:57.244Z,30.15
2018-07-21T12:55:03.930Z,29.98
2018-07-21T12:56:10.044Z,30.08
2018-07-21T12:57:15.874Z,30.20
2018-07-21T12:58:22.266Z,30.25
2018-07-21T12:59:28.099Z,29.75
2018-07-21T13:00:34.007Z,29.86
2018-07-21T13:01:39.829Z,29.78
2018-07-21T13:02:45.839Z,29.36
2018-07-21T13:03:51.602Z,29.33
2018-07-21T13:04:57.394Z,29.14
2018-07-21T13:06:02.882Z,29.17
2018-07-21T13:07:08.636Z,29.43
2018-07-21T13:08:14.500Z,29.51
2018-07-21T13:09:20.208Z,29.53
2018-07-21T13:10:26.186Z,29.29
2018-07-21T13:11:31.675Z,29.30
2018-07-21T13:12:37.396Z,29.32
2018-07-21T13:13:42.911Z,29.46
2018-07-21T13:14:48.589Z,29.38
2018-07-21T13:15:55.103Z,29.35
2018-07-21T13:17:00.656Z,29.38
2018-07-21T13:18:06.033Z,29.36
2018-07-21T13:19:11.793Z,29.35
2018-07-21T13:20:17.604Z,29.15
2018-07-21T13:21:23.706Z,29.05
2018-07-21T13:22:29.435Z,28.85
2018-07-21T13:23:35.288Z,29.06
2018-07-21T13:24:41.096Z,29.25
2018-07-21T13:25:47.056Z,29.34
2018-07-21T13:26:52.917Z,29.39
2018-07-21T13:27:58.692Z,29.13
2018-07-21T13:29:04.155Z,28.92
2018-07-21T13:30:09.534Z,28.91
2018-07-21T13:31:15.388Z,29.01
2018-07-21T13:32:21.182Z,29.14
2018-07-21T13:33:26.972Z,29.04
2018-07-21T13:34:32.786Z,28.84
2018-07-21T13:35:38.477Z,28.89
2018-07-21T13:36:45.012Z,29.00
2018-07-21T13:37:52.257Z,29.00
2018-07-21T13:38:58.035Z,28.97
2018-07-21T13:40:03.804Z,28.74
2018-07-21T13:41:09.665Z,28.72
2018-07-21T13:42:15.097Z,28.81
2018-07-21T13:43:20.835Z,28.79
2018-07-21T13:44:26.779Z,28.53
2018-07-21T13:45:32.949Z,28.65
2018-07-21T13:46:38.433Z,28.79
2018-07-21T13:47:44.120Z,28.81
2018-07-21T13:48:49.692Z,28.51
2018-07-21T13:49:55.534Z,28.39
2018-07-21T13:51:01.360Z,28.51
2018-07-21T13:52:06.949Z,28.54
2018-07-21T13:53:12.333Z,28.27
2018-07-21T13:54:18.402Z,28.26
2018-07-21T13:55:24.183Z,28.14
2018-07-21T13:56:29.948Z,28.09
2018-07-21T13:57:35.740Z,28.09
2018-07-21T13:58:41.542Z,28.07
2018-07-21T13:59:47.323Z,28.06
2018-07-21T14:00:53.716Z,27.90
2018-07-21T14:01:59.567Z,27.88
2018-07-21T14:03:05.591Z,27.97
2018-07-21T14:04:11.396Z,27.98
2018-07-21T14:05:17.928Z,28.04
2018-07-21T14:06:23.773Z,28.09
2018-07-21T14:07:29.592Z,28.04
2018-07-21T14:08:35.496Z,28.03
2018-07-21T14:09:41.377Z,27.94
2018-07-21T14:10:47.170Z,27.98
2018-07-21T14:11:53.006Z,27.99
2018-07-21T14:12:58.823Z,28.03
2018-07-21T14:14:04.761Z,27.94
2018-07-21T14:15:10.860Z,27.83